Time;durP1;ratioP1;P1;durP2;ratioP2;P2;SDS_P1;SDS_P2;PMS_P1;PMS_P2;Temp;Humidity;BMP_temperature;BMP_pressure;BME280_temperature;BME280_humidity;BME280_pressure;Samples;Min_cycle;Max_cycle;Signal;HPM_P1;HPM_P2
2023/03/20 00:00:16;;;;;;;20.75;10.80;;;;;;;;;;1052361;28;20115;-74
2023/03/20 00:00:49;;;;;;;28.67;11.23;;;;;;;;;;1052306;28;20024;-74
2023/03/20 00:01:28;;;;;;;24.20;10.73;;;;;;;;;;1052053;28;20073;-74
2023/03/20 00:01:59;;;;;;;26.58;11.80;;;;;;;;;;1052513;28;20083;-74
2023/03/20 00:02:29;;;;;;;25.35;9.82;;;;;;;;;;1052132;28;20020;-74
2023/03/20 00:03:00;;;;;;;21.08;8.02;;;;;;;;;;1052490;28;20115;-74
2023/03/20 00:03:31;;;;;;;28.85;12.30;;;;;;;;;;1052434;28;20016;-74
2023/03/20 00:04:01;;;;;;;20.35;9.38;;;;;;;;;;1052355;28;20031;-74
2023/03/20 00:04:32;;;;;;;20.35;9.15;;;;;;;;;;1052184;28;20479;-74
2023/03/20 00:05:13;;;;;;;26.90;11.98;;;;;;;;;;1052057;28;20027;-74
2023/03/20 00:05:44;;;;;;;19.75;9.60;;;;;;;;;;1051784;28;20020;-74
2023/03/20 00:06:16;;;;;;;14.32;9.82;;;;;;;;;;1050180;28;20062;-74
2023/03/20 00:06:46;;;;;;;15.70;7.90;;;;;;;;;;1049809;28;20028;-75
2023/03/20 00:07:17;;;;;;;14.98;9.63;;;;;;;;;;1051609;28;20027;-74
2023/03/20 00:07:48;;;;;;;20.45;8.32;;;;;;;;;;1051998;28;20061;-74
2023/03/20 00:08:18;;;;;;;16.20;7.55;;;;;;;;;;1051580;28;20035;-75
2023/03/20 00:08:50;;;;;;;34.10;8.38;;;;;;;;;;1048038;28;20024;-74
2023/03/20 00:09:21;;;;;;;40.38;11.15;;;;;;;;;;1052213;28;20028;-74
2023/03/20 00:09:52;;;;;;;21.92;10.30;;;;;;;;;;1047903;28;20028;-74
2023/03/20 00:10:25;;;;;;;21.00;11.27;;;;;;;;;;1048444;28;20024;-75
2023/03/20 00:10:57;;;;;;;28.42;10.85;;;;;;;;;;1051095;28;20403;-74
2023/03/20 00:11:32;;;;;;;28.73;9.85;;;;;;;;;;1051912;28;20024;-75
2023/03/20 00:12:02;;;;;;;15.90;8.48;;;;;;;;;;1052111;28;20020;-74
2023/03/20 00:12:33;;;;;;;21.27;11.57;;;;;;;;;;1052109;28;20016;-74
2023/03/20 00:13:05;;;;;;;10.15;7.78;;;;;;;;;;1052165;28;20024;-75
2023/03/20 00:13:35;;;;;;;31.80;11.63;;;;;;;;;;1052135;28;20016;-75
2023/03/20 00:14:07;;;;;;;25.75;12.32;;;;;;;;;;1050221;28;20023;-74
2023/03/20 00:14:38;;;;;;;10.77;7.63;;;;;;;;;;1049949;28;20023;-74
2023/03/20 00:15:26;;;;;;;17.50;9.55;;;;;;;;;;1052431;28;20091;-74
2023/03/20 00:15:56;;;;;;;14.32;9.50;;;;;;;;;;1051335;28;20123;-74
2023/03/20 00:16:31;;;;;;;19.83;7.53;;;;;;;;;;1052137;28;20031;-74
2023/03/20 00:17:07;;;;;;;12.30;8.13;;;;;;;;;;1052000;28;20066;-74
2023/03/20 00:17:38;;;;;;;17.45;7.63;;;;;;;;;;1051875;28;20028;-74
2023/03/20 00:18:17;;;;;;;16.33;7.53;;;;;;;;;;1051960;28;20024;-74
2023/03/20 00:18:47;;;;;;;23.98;10.18;;;;;;;;;;1051891;28;20028;-74
2023/03/20 00:19:18;;;;;;;27.58;9.82;;;;;;;;;;1051821;28;20020;-74
2023/03/20 00:19:48;;;;;;;17.45;10.10;;;;;;;;;;1052463;28;20024;-75
2023/03/20 00:20:19;;;;;;;19.55;8.32;;;;;;;;;;1052623;28;20554;-74
2023/03/20 00:20:50;;;;;;;15.15;8.25;;;;;;;;;;1051875;28;20020;-74
2023/03/20 00:21:20;;;;;;;18.20;8.23;;;;;;;;;;1051991;28;20125;-74
2023/03/20 00:21:52;;;;;;;13.43;6.45;;;;;;;;;;1051922;28;20019;-75
2023/03/20 00:22:23;;;;;;;16.90;7.43;;;;;;;;;;1051779;28;20028;-74
2023/03/20 00:22:53;;;;;;;12.25;6.72;;;;;;;;;;1052155;28;20020;-74
2023/03/20 00:23:24;;;;;;;16.20;6.80;;;;;;;;;;1052098;28;20069;-74
2023/03/20 00:23:55;;;;;;;31.70;10.85;;;;;;;;;;1052113;28;20088;-75
2023/03/20 00:24:25;;;;;;;12.02;7.30;;;;;;;;;;1052194;28;20459;-74
2023/03/20 00:24:56;;;;;;;10.18;7.53;;;;;;;;;;1052369;28;20030;-74
2023/03/20 00:25:27;;;;;;;13.77;7.40;;;;;;;;;;1052301;28;20077;-74
2023/03/20 00:25:57;;;;;;;15.43;6.10;;;;;;;;;;1052060;28;20020;-74
2023/03/20 00:26:31;;;;;;;21.13;5.32;;;;;;;;;;1051837;28;20016;-74
2023/03/20 00:27:02;;;;;;;14.50;6.90;;;;;;;;;;1052179;28;20020;-74
2023/03/20 00:27:32;;;;;;;13.60;7.38;;;;;;;;;;1052018;28;20047;-74
2023/03/20 00:28:10;;;;;;;24.25;9.07;;;;;;;;;;1050778;28;20028;-74
2023/03/20 00:28:42;;;;;;;17.20;7.78;;;;;;;;;;1051485;28;20024;-74
2023/03/20 00:29:23;;;;;;;20.60;8.90;;;;;;;;;;1052567;28;20055;-74
2023/03/20 00:29:53;;;;;;;10.15;6.35;;;;;;;;;;1051988;28;20072;-75
2023/03/20 00:30:30;;;;;;;13.73;7.82;;;;;;;;;;1051943;28;20097;-74
2023/03/20 00:31:00;;;;;;;24.27;6.72;;;;;;;;;;1051617;28;20418;-74
2023/03/20 00:31:33;;;;;;;21.13;7.70;;;;;;;;;;1047633;28;20013;-74
2023/03/20 00:32:04;;;;;;;10.60;6.05;;;;;;;;;;1047734;28;20031;-74
2023/03/20 00:32:35;;;;;;;18.85;7.63;;;;;;;;;;1048211;28;20021;-74
2023/03/20 00:33:08;;;;;;;18.90;6.85;;;;;;;;;;1052130;28;20024;-74
2023/03/20 00:33:39;;;;;;;14.98;7.78;;;;;;;;;;1051649;28;20562;-74
2023/03/20 00:34:12;;;;;;;24.52;8.50;;;;;;;;;;1052110;28;20069;-74
2023/03/20 00:34:42;;;;;;;22.23;7.47;;;;;;;;;;1050918;28;20035;-74
2023/03/20 00:35:16;;;;;;;16.10;8.00;;;;;;;;;;1050339;28;20444;-74
2023/03/20 00:35:47;;;;;;;16.20;8.05;;;;;;;;;;1051852;28;20496;-74
2023/03/20 00:36:17;;;;;;;19.25;9.45;;;;;;;;;;1051929;28;20032;-74
2023/03/20 00:36:48;;;;;;;13.70;6.22;;;;;;;;;;1050906;28;20024;-74
2023/03/20 00:37:19;;;;;;;14.75;6.65;;;;;;;;;;1051905;28;20020;-74
2023/03/20 00:37:50;;;;;;;23.00;7.43;;;;;;;;;;1052387;28;20024;-74
2023/03/20 00:38:20;;;;;;;20.48;7.40;;;;;;;;;;1052190;28;20020;-74
2023/03/20 00:38:51;;;;;;;16.33;6.15;;;;;;;;;;1051863;28;20012;-74
2023/03/20 00:39:22;;;;;;;19.35;8.50;;;;;;;;;;1052139;28;20110;-74
2023/03/20 00:39:53;;;;;;;14.77;6.25;;;;;;;;;;1051753;28;20024;-74
2023/03/20 00:40:29;;;;;;;17.50;9.00;;;;;;;;;;1051905;28;20020;-74
2023/03/20 00:40:59;;;;;;;21.00;9.85;;;;;;;;;;1051789;28;20030;-74
2023/03/20 00:41:32;;;;;;;22.55;7.32;;;;;;;;;;1051869;28;20062;-74
2023/03/20 00:42:06;;;;;;;17.80;7.40;;;;;;;;;;1052037;28;20011;-74
2023/03/20 00:42:37;;;;;;;12.77;9.93;;;;;;;;;;1051747;28;20118;-74
2023/03/20 00:43:09;;;;;;;21.17;6.75;;;;;;;;;;1052010;28;20035;-74
2023/03/20 00:43:39;;;;;;;7.50;4.72;;;;;;;;;;1052041;28;20114;-74
2023/03/20 00:44:25;;;;;;;18.88;6.53;;;;;;;;;;1051010;28;20070;-74
2023/03/20 00:44:58;;;;;;;16.88;7.82;;;;;;;;;;1050270;28;20016;-74
2023/03/20 00:45:30;;;;;;;13.38;9.15;;;;;;;;;;1051234;28;20016;-74
2023/03/20 00:46:00;;;;;;;19.35;7.57;;;;;;;;;;1051973;28;20163;-75
2023/03/20 00:46:34;;;;;;;18.92;9.13;;;;;;;;;;1051767;28;20027;-75
2023/03/20 00:47:12;;;;;;;12.35;5.93;;;;;;;;;;1050761;28;20020;-74
2023/03/20 00:47:43;;;;;;;27.63;9.80;;;;;;;;;;1051543;28;20926;-74
2023/03/20 00:48:14;;;;;;;14.40;9.60;;;;;;;;;;1052330;28;20491;-74
2023/03/20 00:48:46;;;;;;;16.52;9.00;;;;;;;;;;1051380;28;20077;-74
2023/03/20 00:49:17;;;;;;;11.48;5.63;;;;;;;;;;1051553;28;20023;-74
2023/03/20 00:49:49;;;;;;;16.73;8.23;;;;;;;;;;1051067;28;20016;-74
2023/03/20 00:50:24;;;;;;;17.38;7.68;;;;;;;;;;1051454;28;20024;-75
2023/03/20 00:50:57;;;;;;;22.73;11.57;;;;;;;;;;1050866;28;20431;-74
2023/03/20 00:51:28;;;;;;;20.83;10.82;;;;;;;;;;1051495;28;20542;-74
2023/03/20 00:51:58;;;;;;;13.38;7.10;;;;;;;;;;1051874;28;20062;-74
2023/03/20 00:52:29;;;;;;;19.92;8.85;;;;;;;;;;1051884;28;20463;-74
2023/03/20 00:52:59;;;;;;;10.88;7.57;;;;;;;;;;1052013;28;20511;-74
2023/03/20 00:53:29;;;;;;;18.77;7.00;;;;;;;;;;1051890;28;20028;-74
2023/03/20 00:54:00;;;;;;;21.77;7.38;;;;;;;;;;1051796;28;20480;-74
2023/03/20 00:54:30;;;;;;;21.58;8.43;;;;;;;;;;1051696;28;20086;-74
2023/03/20 00:55:01;;;;;;;14.00;8.30;;;;;;;;;;1052000;28;20070;-74
2023/03/20 00:55:31;;;;;;;18.15;9.60;;;;;;;;;;1051598;28;20102;-74
2023/03/20 00:56:02;;;;;;;22.38;7.10;;;;;;;;;;1052039;28;20153;-74
2023/03/20 00:56:39;;;;;;;23.52;7.68;;;;;;;;;;1050546;28;20032;-74
2023/03/20 00:57:19;;;;;;;30.30;10.65;;;;;;;;;;1051724;28;20028;-74
2023/03/20 00:57:53;;;;;;;19.00;8.40;;;;;;;;;;1050863;28;20388;-74
2023/03/20 00:58:23;;;;;;;19.05;8.13;;;;;;;;;;1051393;28;20031;-74
2023/03/20 00:58:53;;;;;;;13.00;7.18;;;;;;;;;;1051913;28;20388;-74
2023/03/20 00:59:27;;;;;;;12.00;7.10;;;;;;;;;;1051603;28;20020;-74
2023/03/20 00:59:58;;;;;;;13.98;7.38;;;;;;;;;;1047666;28;20060;-74
2023/03/20 01:00:37;;;;;;;15.07;6.90;;;;;;;;;;1051437;28;20612;-74
2023/03/20 01:01:08;;;;;;;25.55;9.27;;;;;;;;;;1051844;28;20383;-74
2023/03/20 01:01:38;;;;;;;24.27;7.97;;;;;;;;;;1051890;28;20031;-74
2023/03/20 01:02:10;;;;;;;17.17;7.22;;;;;;;;;;1052086;28;20079;-74
2023/03/20 01:02:40;;;;;;;18.60;8.85;;;;;;;;;;1050110;28;20137;-75
2023/03/20 01:03:18;;;;;;;31.77;11.98;;;;;;;;;;1052472;28;20431;-75
2023/03/20 01:03:49;;;;;;;30.00;11.70;;;;;;;;;;1050445;28;20497;-74
2023/03/20 01:04:20;;;;;;;23.80;11.57;;;;;;;;;;1050457;28;20589;-74
2023/03/20 01:04:51;;;;;;;30.95;12.93;;;;;;;;;;1050226;28;20454;-75
2023/03/20 01:05:22;;;;;;;31.48;11.45;;;;;;;;;;1050545;28;20043;-75
2023/03/20 01:05:52;;;;;;;53.15;19.25;;;;;;;;;;1051812;28;20054;-74
2023/03/20 01:06:23;;;;;;;36.00;12.77;;;;;;;;;;1051402;28;20032;-75
2023/03/20 01:06:53;;;;;;;51.70;14.23;;;;;;;;;;1051706;28;20031;-74
2023/03/20 01:07:24;;;;;;;44.00;18.95;;;;;;;;;;1050838;28;20031;-74
2023/03/20 01:07:55;;;;;;;42.03;14.15;;;;;;;;;;1049371;28;20023;-74
2023/03/20 01:08:25;;;;;;;45.35;16.02;;;;;;;;;;1052054;28;20456;-75
2023/03/20 01:08:56;;;;;;;81.35;34.92;;;;;;;;;;1052297;28;20489;-74
2023/03/20 01:09:27;;;;;;;82.72;38.30;;;;;;;;;;1047356;28;20044;-74
2023/03/20 01:09:57;;;;;;;85.45;32.45;;;;;;;;;;1051815;28;20460;-74
2023/03/20 01:10:30;;;;;;;76.85;28.65;;;;;;;;;;1051633;28;20114;-74
2023/03/20 01:11:00;;;;;;;75.35;25.15;;;;;;;;;;1051725;28;20020;-74
2023/03/20 01:11:31;;;;;;;56.08;20.33;;;;;;;;;;1051583;28;20031;-74
2023/03/20 01:12:02;;;;;;;52.25;19.35;;;;;;;;;;1051032;28;20028;-74
2023/03/20 01:12:33;;;;;;;57.97;21.30;;;;;;;;;;1050973;28;20144;-74
2023/03/20 01:13:05;;;;;;;39.10;17.50;;;;;;;;;;1051451;28;20036;-74
2023/03/20 01:13:37;;;;;;;29.92;15.90;;;;;;;;;;1051425;28;20519;-74
2023/03/20 01:14:12;;;;;;;31.88;18.38;;;;;;;;;;1049492;28;20543;-74
2023/03/20 01:14:43;;;;;;;40.92;16.80;;;;;;;;;;1049691;28;20118;-75
2023/03/20 01:15:24;;;;;;;52.20;18.75;;;;;;;;;;1047071;28;20025;-74
2023/03/20 01:15:56;;;;;;;61.33;18.88;;;;;;;;;;1049574;28;20028;-74
2023/03/20 01:16:29;;;;;;;45.15;19.60;;;;;;;;;;1047552;28;20085;-74
2023/03/20 01:17:00;;;;;;;53.72;23.65;;;;;;;;;;1049235;28;20054;-75
2023/03/20 01:17:30;;;;;;;32.08;15.73;;;;;;;;;;1050799;28;21262;-75
2023/03/20 01:18:02;;;;;;;86.68;24.67;;;;;;;;;;1051798;28;20016;-74
2023/03/20 01:18:33;;;;;;;67.50;19.58;;;;;;;;;;1051940;28;20448;-74
2023/03/20 01:19:03;;;;;;;77.88;25.92;;;;;;;;;;1051913;28;20020;-74
2023/03/20 01:19:33;;;;;;;47.85;18.45;;;;;;;;;;1049703;28;20448;-75
2023/03/20 01:20:08;;;;;;;43.58;18.65;;;;;;;;;;1048587;28;20383;-74
2023/03/20 01:20:39;;;;;;;40.03;20.67;;;;;;;;;;1049536;28;20111;-74
2023/03/20 01:21:09;;;;;;;39.45;18.92;;;;;;;;;;1050811;28;20050;-74
2023/03/20 01:21:40;;;;;;;44.22;19.02;;;;;;;;;;1048256;28;20055;-74
2023/03/20 01:22:12;;;;;;;35.70;19.17;;;;;;;;;;1051498;28;20051;-75
2023/03/20 01:22:43;;;;;;;42.33;18.33;;;;;;;;;;1050941;28;20028;-75
2023/03/20 01:23:14;;;;;;;29.05;17.08;;;;;;;;;;1050137;28;20051;-75
2023/03/20 01:23:44;;;;;;;35.90;18.23;;;;;;;;;;1050544;28;20115;-74
2023/03/20 01:24:15;;;;;;;40.88;17.23;;;;;;;;;;1049822;28;20024;-74
2023/03/20 01:24:46;;;;;;;32.30;17.90;;;;;;;;;;1050598;28;20012;-74
2023/03/20 01:25:16;;;;;;;44.97;19.98;;;;;;;;;;1051076;28;20039;-74
2023/03/20 01:25:47;;;;;;;47.40;18.48;;;;;;;;;;1050707;28;20016;-75
2023/03/20 01:26:31;;;;;;;32.72;17.83;;;;;;;;;;1049689;28;20419;-75
2023/03/20 01:27:04;;;;;;;26.70;14.25;;;;;;;;;;1049145;28;20024;-75
2023/03/20 01:27:34;;;;;;;29.67;13.60;;;;;;;;;;1044697;28;20021;-75
2023/03/20 01:28:19;;;;;;;47.72;19.48;;;;;;;;;;1046984;28;20029;-74
2023/03/20 01:28:50;;;;;;;35.67;18.63;;;;;;;;;;1048752;28;20024;-74
2023/03/20 01:29:26;;;;;;;40.65;19.08;;;;;;;;;;1047145;28;20032;-74
2023/03/20 01:29:56;;;;;;;34.55;16.42;;;;;;;;;;1043859;28;20021;-74
2023/03/20 01:30:28;;;;;;;57.15;19.02;;;;;;;;;;1044860;28;20484;-74
2023/03/20 01:30:59;;;;;;;30.63;16.00;;;;;;;;;;1046703;28;20017;-74
2023/03/20 01:31:29;;;;;;;55.72;17.50;;;;;;;;;;1048892;28;20032;-74
2023/03/20 01:32:00;;;;;;;25.92;14.88;;;;;;;;;;1048551;28;20511;-74
2023/03/20 01:32:30;;;;;;;31.58;15.95;;;;;;;;;;1049151;28;20581;-74
2023/03/20 01:33:05;;;;;;;33.20;13.65;;;;;;;;;;1050036;28;20016;-74
2023/03/20 01:33:36;;;;;;;37.58;14.93;;;;;;;;;;1047631;28;20552;-74
2023/03/20 01:34:08;;;;;;;37.05;17.70;;;;;;;;;;1045025;28;20039;-74
2023/03/20 01:34:39;;;;;;;36.05;17.35;;;;;;;;;;1045551;28;20021;-74
2023/03/20 01:35:13;;;;;;;38.17;19.45;;;;;;;;;;1047199;28;20025;-74
2023/03/20 01:35:45;;;;;;;27.67;15.90;;;;;;;;;;1050336;28;20040;-75
2023/03/20 01:36:19;;;;;;;54.78;21.60;;;;;;;;;;1050338;28;20595;-74
2023/03/20 01:36:53;;;;;;;34.88;17.77;;;;;;;;;;1047101;28;20028;-75
2023/03/20 01:37:25;;;;;;;31.58;14.07;;;;;;;;;;1048347;28;20396;-74
2023/03/20 01:37:56;;;;;;;31.42;15.95;;;;;;;;;;1050333;28;20389;-74
2023/03/20 01:38:27;;;;;;;24.77;15.10;;;;;;;;;;1048968;28;20033;-75
2023/03/20 01:38:57;;;;;;;31.05;15.55;;;;;;;;;;1048494;28;20857;-75
2023/03/20 01:39:31;;;;;;;21.52;12.52;;;;;;;;;;1050600;28;20023;-74
2023/03/20 01:40:02;;;;;;;28.67;13.88;;;;;;;;;;1050453;28;20031;-75
2023/03/20 01:40:52;;;;;;;38.72;18.35;;;;;;;;;;1051360;28;20118;-75
2023/03/20 01:41:24;;;;;;;39.03;11.82;;;;;;;;;;1048830;28;20032;-74
2023/03/20 01:41:54;;;;;;;50.75;13.85;;;;;;;;;;1048571;28;20024;-75
2023/03/20 01:42:25;;;;;;;30.48;14.30;;;;;;;;;;1049096;28;20028;-75
2023/03/20 01:42:56;;;;;;;45.15;16.20;;;;;;;;;;1049929;28;20054;-74
2023/03/20 01:43:27;;;;;;;59.20;17.00;;;;;;;;;;1045042;28;20099;-74
2023/03/20 01:44:00;;;;;;;34.85;15.10;;;;;;;;;;1047305;28;20028;-74
2023/03/20 01:44:32;;;;;;;34.70;13.90;;;;;;;;;;1050968;28;20077;-74
2023/03/20 01:45:09;;;;;;;29.15;14.02;;;;;;;;;;1048343;28;20493;-74
2023/03/20 01:45:46;;;;;;;29.63;17.25;;;;;;;;;;1049121;28;20107;-75
2023/03/20 01:46:18;;;;;;;26.27;14.02;;;;;;;;;;1050822;28;20394;-74
2023/03/20 01:46:50;;;;;;;40.47;21.17;;;;;;;;;;1049619;28;20022;-75
2023/03/20 01:47:22;;;;;;;35.47;15.75;;;;;;;;;;1043893;28;20112;-75
2023/03/20 01:47:53;;;;;;;32.38;15.90;;;;;;;;;;1043636;28;20113;-74
2023/03/20 01:48:26;;;;;;;32.35;18.38;;;;;;;;;;1042015;28;20400;-74
2023/03/20 01:49:04;;;;;;;33.55;16.35;;;;;;;;;;1047870;28;20560;-75
2023/03/20 01:49:53;;;;;;;55.70;18.98;;;;;;;;;;1046137;28;20017;-75
2023/03/20 01:50:25;;;;;;;30.42;15.98;;;;;;;;;;1050988;28;20020;-75
2023/03/20 01:50:56;;;;;;;46.03;17.80;;;;;;;;;;1047267;28;20235;-75
2023/03/20 01:51:34;;;;;;;50.50;26.40;;;;;;;;;;1047949;28;20089;-74
2023/03/20 01:52:05;;;;;;;53.35;21.02;;;;;;;;;;1050303;28;20020;-75
2023/03/20 01:52:35;;;;;;;30.15;14.82;;;;;;;;;;1049997;28;20032;-75
2023/03/20 01:53:06;;;;;;;44.22;21.42;;;;;;;;;;1048250;28;20122;-75
2023/03/20 01:53:36;;;;;;;34.83;17.08;;;;;;;;;;1049991;28;20368;-75
2023/03/20 01:54:27;;;;;;;43.75;14.13;;;;;;;;;;1050783;28;20027;-75
2023/03/20 01:54:58;;;;;;;32.20;17.90;;;;;;;;;;1043772;28;20039;-75
2023/03/20 01:55:28;;;;;;;34.63;16.30;;;;;;;;;;1050881;28;20031;-74
2023/03/20 01:56:00;;;;;;;25.65;15.50;;;;;;;;;;1051422;28;20884;-74
2023/03/20 01:56:32;;;;;;;29.83;15.40;;;;;;;;;;1049580;28;20855;-74
2023/03/20 01:57:06;;;;;;;57.42;20.10;;;;;;;;;;1049439;28;20029;-75
2023/03/20 01:57:37;;;;;;;26.20;15.95;;;;;;;;;;1049936;28;20046;-75
2023/03/20 01:58:12;;;;;;;30.92;14.60;;;;;;;;;;1043675;28;20029;-74
2023/03/20 01:58:45;;;;;;;38.50;16.25;;;;;;;;;;1046157;28;20021;-74
2023/03/20 01:59:18;;;;;;;24.65;14.07;;;;;;;;;;1046785;28;20059;-74
2023/03/20 01:59:50;;;;;;;33.10;18.45;;;;;;;;;;1045418;28;20024;-74
2023/03/20 02:00:22;;;;;;;60.00;19.48;;;;;;;;;;1049820;28;20158;-74
2023/03/20 02:00:53;;;;;;;32.17;17.08;;;;;;;;;;1050698;28;20143;-75
2023/03/20 02:01:25;;;;;;;39.25;17.00;;;;;;;;;;1050007;28;20024;-75
2023/03/20 02:01:55;;;;;;;37.00;18.25;;;;;;;;;;1051526;28;20038;-74
2023/03/20 02:02:28;;;;;;;34.55;15.00;;;;;;;;;;1048825;28;20017;-75
2023/03/20 02:02:58;;;;;;;31.75;14.95;;;;;;;;;;1049201;28;20043;-74
2023/03/20 02:03:29;;;;;;;31.63;14.95;;;;;;;;;;1049459;28;20035;-74
2023/03/20 02:04:00;;;;;;;33.15;16.02;;;;;;;;;;1047534;28;20036;-74
2023/03/20 02:04:37;;;;;;;34.83;15.05;;;;;;;;;;1051412;28;20484;-74
2023/03/20 02:05:10;;;;;;;45.67;17.70;;;;;;;;;;1051911;28;20095;-74
2023/03/20 02:05:41;;;;;;;29.23;14.48;;;;;;;;;;1050719;28;20054;-74
2023/03/20 02:06:12;;;;;;;41.38;16.40;;;;;;;;;;1049076;28;20036;-74
2023/03/20 02:06:46;;;;;;;29.58;14.32;;;;;;;;;;1048783;28;20085;-75
2023/03/20 02:07:18;;;;;;;23.45;15.15;;;;;;;;;;1051035;28;20016;-74
2023/03/20 02:07:56;;;;;;;42.45;14.32;;;;;;;;;;1048286;28;20020;-74
2023/03/20 02:08:28;;;;;;;28.55;11.30;;;;;;;;;;1047655;28;20434;-73
2023/03/20 02:08:59;;;;;;;27.88;11.35;;;;;;;;;;1049888;28;20031;-73
2023/03/20 02:09:32;;;;;;;41.20;14.90;;;;;;;;;;1044970;28;20487;-75
2023/03/20 02:10:10;;;;;;;34.30;13.25;;;;;;;;;;1048351;28;20027;-73
2023/03/20 02:10:42;;;;;;;28.10;14.30;;;;;;;;;;1050931;28;20020;-73
2023/03/20 02:11:14;;;;;;;39.58;14.68;;;;;;;;;;1050604;28;20024;-73
2023/03/20 02:11:48;;;;;;;37.88;14.02;;;;;;;;;;1050267;28;20085;-73
2023/03/20 02:12:19;;;;;;;36.47;11.68;;;;;;;;;;1049732;28;20050;-73
2023/03/20 02:12:50;;;;;;;31.27;16.30;;;;;;;;;;1050289;28;20035;-74
2023/03/20 02:13:21;;;;;;;30.42;13.77;;;;;;;;;;1047145;28;20031;-74
2023/03/20 02:13:54;;;;;;;25.00;11.60;;;;;;;;;;1051687;28;20043;-73
2023/03/20 02:14:25;;;;;;;33.03;15.98;;;;;;;;;;1050846;28;20033;-73
2023/03/20 02:14:56;;;;;;;31.52;13.82;;;;;;;;;;1050675;28;20032;-73
2023/03/20 02:15:28;;;;;;;30.35;14.93;;;;;;;;;;1050488;28;20028;-73
2023/03/20 02:16:06;;;;;;;23.25;13.00;;;;;;;;;;1050096;28;20056;-73
2023/03/20 02:16:36;;;;;;;41.65;16.33;;;;;;;;;;1051616;28;20024;-75
2023/03/20 02:17:08;;;;;;;41.45;16.42;;;;;;;;;;1049538;28;20031;-73
2023/03/20 02:17:39;;;;;;;43.15;16.42;;;;;;;;;;1043912;28;20052;-73
2023/03/20 02:18:09;;;;;;;24.00;11.15;;;;;;;;;;1043058;28;20529;-74
2023/03/20 02:18:42;;;;;;;27.63;12.75;;;;;;;;;;1038369;28;20525;-73
2023/03/20 02:19:20;;;;;;;36.75;14.98;;;;;;;;;;1043094;28;20037;-73
2023/03/20 02:19:54;;;;;;;35.50;14.43;;;;;;;;;;1047691;28;20499;-73
2023/03/20 02:20:30;;;;;;;29.10;12.73;;;;;;;;;;1052874;28;20028;-73
2023/03/20 02:21:06;;;;;;;23.63;13.50;;;;;;;;;;1053346;28;20088;-73
2023/03/20 02:21:49;;;;;;;36.30;15.25;;;;;;;;;;1051200;28;20392;-73
2023/03/20 02:22:38;;;;;;;28.63;12.73;;;;;;;;;;1051955;28;20020;-73
2023/03/20 02:23:38;;;;;;;66.47;20.77;;;;;;;;;;1050852;28;20478;-73
2023/03/20 02:24:17;;;;;;;55.63;15.17;;;;;;;;;;1047883;28;20033;-73
2023/03/20 02:24:58;;;;;;;26.25;12.55;;;;;;;;;;1047535;28;20908;-73
2023/03/20 02:25:55;;;;;;;40.63;12.70;;;;;;;;;;1046040;28;20024;-73
2023/03/20 02:26:45;;;;;;;21.80;11.30;;;;;;;;;;1047714;28;20089;-73
2023/03/20 02:27:16;;;;;;;20.75;9.40;;;;;;;;;;1050216;28;20024;-74
2023/03/20 02:27:58;;;;;;;56.65;11.35;;;;;;;;;;1052140;28;20031;-74
2023/03/20 02:28:39;;;;;;;42.20;13.02;;;;;;;;;;1050878;28;20479;-73
2023/03/20 02:29:13;;;;;;;26.85;10.15;;;;;;;;;;1051598;28;20082;-73
2023/03/20 02:30:00;;;;;;;34.80;11.43;;;;;;;;;;1051230;28;20049;-74
2023/03/20 02:30:40;;;;;;;17.45;11.85;;;;;;;;;;1051987;28;20020;-73
2023/03/20 02:31:21;;;;;;;21.05;8.27;;;;;;;;;;1049298;28;20523;-73
2023/03/20 02:31:55;;;;;;;16.92;8.45;;;;;;;;;;1046302;28;20016;-74
2023/03/20 02:32:26;;;;;;;22.60;9.70;;;;;;;;;;1048783;28;20487;-74
2023/03/20 02:33:21;;;;;;;23.73;9.10;;;;;;;;;;1046495;28;20094;-75
2023/03/20 02:34:10;;;;;;;20.98;9.18;;;;;;;;;;1040032;28;20044;-74
2023/03/20 02:35:01;;;;;;;16.50;7.55;;;;;;;;;;1045477;28;20021;-74
2023/03/20 02:35:36;;;;;;;20.35;9.50;;;;;;;;;;1043975;28;20067;-74
2023/03/20 02:36:22;;;;;;;13.35;9.70;;;;;;;;;;1042880;28;20409;-75
2023/03/20 02:36:52;;;;;;;21.02;9.25;;;;;;;;;;1044596;28;20170;-74
2023/03/20 02:37:22;;;;;;;20.83;9.50;;;;;;;;;;1048805;28;20125;-74
2023/03/20 02:38:08;;;;;;;22.17;11.20;;;;;;;;;;1049533;28;20106;-74
2023/03/20 02:38:50;;;;;;;13.63;7.82;;;;;;;;;;1049843;28;20402;-74
2023/03/20 02:39:23;;;;;;;21.00;9.82;;;;;;;;;;1049256;28;20121;-74
2023/03/20 02:40:12;;;;;;;23.58;10.27;;;;;;;;;;1051254;28;20136;-74
2023/03/20 02:40:43;;;;;;;22.88;12.57;;;;;;;;;;1050140;28;20665;-74
2023/03/20 02:41:32;;;;;;;21.02;12.30;;;;;;;;;;1052039;28;20027;-74
2023/03/20 02:42:02;;;;;;;28.98;8.43;;;;;;;;;;1050609;28;20078;-74
2023/03/20 02:42:41;;;;;;;39.97;11.43;;;;;;;;;;1049138;28;20459;-74
2023/03/20 02:43:35;;;;;;;18.55;8.32;;;;;;;;;;1049595;28;20038;-74
2023/03/20 02:44:30;;;;;;;11.15;6.13;;;;;;;;;;1050669;28;20024;-74
2023/03/20 02:45:01;;;;;;;27.42;12.15;;;;;;;;;;1044063;28;20042;-74
2023/03/20 02:45:32;;;;;;;15.35;9.05;;;;;;;;;;1045622;28;20365;-74
2023/03/20 02:46:03;;;;;;;20.38;10.30;;;;;;;;;;1042289;28;20032;-73
2023/03/20 02:46:38;;;;;;;13.10;7.82;;;;;;;;;;1042017;28;20135;-73
2023/03/20 02:47:21;;;;;;;14.15;9.10;;;;;;;;;;1043801;28;20029;-74
2023/03/20 02:48:10;;;;;;;15.55;6.22;;;;;;;;;;1048187;28;20051;-74
2023/03/20 02:48:41;;;;;;;20.90;6.33;;;;;;;;;;1049893;28;20097;-76
2023/03/20 02:49:30;;;;;;;20.70;8.50;;;;;;;;;;1047988;28;20829;-75
2023/03/20 02:50:14;;;;;;;34.75;8.13;;;;;;;;;;1044655;28;20028;-77
2023/03/20 02:50:56;;;;;;;33.58;7.15;;;;;;;;;;1049817;28;20064;-75
2023/03/20 02:51:43;;;;;;;18.08;8.60;;;;;;;;;;1043710;28;20074;-74
2023/03/20 02:52:20;;;;;;;25.15;9.15;;;;;;;;;;1044162;28;20103;-76
2023/03/20 02:52:57;;;;;;;13.00;5.70;;;;;;;;;;1041999;28;20029;-75
2023/03/20 02:53:45;;;;;;;16.30;9.15;;;;;;;;;;1040958;28;20033;-75
2023/03/20 02:54:29;;;;;;;15.48;9.85;;;;;;;;;;1045928;28;20021;-74
2023/03/20 02:55:09;;;;;;;16.85;8.15;;;;;;;;;;1049261;28;20693;-75
2023/03/20 02:55:43;;;;;;;16.55;8.25;;;;;;;;;;1048934;28;20036;-75
2023/03/20 02:56:19;;;;;;;21.90;9.95;;;;;;;;;;1049998;28;20387;-75
2023/03/20 02:57:16;;;;;;;20.85;8.65;;;;;;;;;;1047146;28;20035;-72
2023/03/20 02:57:50;;;;;;;12.65;7.20;;;;;;;;;;1046571;28;20466;-75
2023/03/20 02:58:23;;;;;;;16.27;10.73;;;;;;;;;;1049404;28;20231;-74
2023/03/20 02:58:54;;;;;;;18.45;7.18;;;;;;;;;;1046848;28;20016;-74
2023/03/20 02:59:29;;;;;;;17.63;9.15;;;;;;;;;;1044701;28;20036;-75
2023/03/20 03:00:03;;;;;;;13.52;8.50;;;;;;;;;;1045137;28;20028;-74
2023/03/20 03:00:38;;;;;;;9.73;5.13;;;;;;;;;;1043967;28;20047;-74
2023/03/20 03:01:14;;;;;;;16.95;8.77;;;;;;;;;;1043108;28;20021;-75
2023/03/20 03:01:51;;;;;;;19.33;8.55;;;;;;;;;;1046054;28;20043;-74
2023/03/20 03:02:42;;;;;;;9.82;6.90;;;;;;;;;;1046867;28;20024;-74
2023/03/20 03:03:23;;;;;;;8.50;6.60;;;;;;;;;;1047838;28;20032;-74
2023/03/20 03:03:55;;;;;;;15.82;8.35;;;;;;;;;;1049531;28;20031;-75
2023/03/20 03:04:32;;;;;;;14.65;6.18;;;;;;;;;;1048348;28;20028;-74
2023/03/20 03:05:04;;;;;;;25.13;8.07;;;;;;;;;;1048678;28;20431;-75
2023/03/20 03:05:41;;;;;;;22.60;8.90;;;;;;;;;;1050538;28;20088;-75
2023/03/20 03:06:41;;;;;;;13.00;6.95;;;;;;;;;;1047837;28;20024;-75
2023/03/20 03:07:13;;;;;;;13.45;6.88;;;;;;;;;;1036788;28;20109;-73
2023/03/20 03:07:49;;;;;;;14.55;7.60;;;;;;;;;;1040176;28;20039;-74
2023/03/20 03:08:21;;;;;;;12.05;5.10;;;;;;;;;;1043992;28;20166;-75
2023/03/20 03:08:54;;;;;;;24.92;7.60;;;;;;;;;;1042275;28;20021;-74
2023/03/20 03:09:51;;;;;;;13.60;6.15;;;;;;;;;;1042615;28;20025;-75
2023/03/20 03:10:44;;;;;;;9.90;5.88;;;;;;;;;;1043454;28;20040;-75
2023/03/20 03:11:16;;;;;;;8.23;5.43;;;;;;;;;;1048710;28;20029;-74
2023/03/20 03:11:56;;;;;;;11.05;7.00;;;;;;;;;;1046421;28;20084;-75
2023/03/20 03:12:30;;;;;;;7.03;4.78;;;;;;;;;;1044104;28;20060;-74
2023/03/20 03:13:05;;;;;;;17.10;6.75;;;;;;;;;;1044251;28;20123;-75
2023/03/20 03:13:37;;;;;;;9.93;5.70;;;;;;;;;;1044750;28;20632;-74
2023/03/20 03:14:16;;;;;;;9.05;6.47;;;;;;;;;;1046608;28;20028;-75
2023/03/20 03:14:52;;;;;;;18.17;7.88;;;;;;;;;;1043897;28;20099;-75
2023/03/20 03:15:31;;;;;;;14.20;7.85;;;;;;;;;;1048150;28;20029;-74
2023/03/20 03:16:06;;;;;;;20.05;7.93;;;;;;;;;;1048375;28;20044;-75
2023/03/20 03:16:37;;;;;;;15.30;7.93;;;;;;;;;;1046500;28;20041;-75
2023/03/20 03:17:09;;;;;;;20.88;8.43;;;;;;;;;;1048319;28;20024;-75
2023/03/20 03:17:40;;;;;;;19.00;3.78;;;;;;;;;;1046195;28;20086;-75
2023/03/20 03:18:13;;;;;;;9.23;5.88;;;;;;;;;;1044411;28;20068;-75
2023/03/20 03:18:45;;;;;;;13.60;6.30;;;;;;;;;;1045322;28;20048;-75
2023/03/20 03:19:18;;;;;;;11.70;5.57;;;;;;;;;;1042060;28;20025;-74
2023/03/20 03:19:53;;;;;;;15.15;7.50;;;;;;;;;;1041516;28;20021;-74
2023/03/20 03:20:27;;;;;;;14.88;6.72;;;;;;;;;;1037359;28;20032;-74
2023/03/20 03:20:59;;;;;;;10.48;5.40;;;;;;;;;;1037681;28;20448;-74